Aeroporto :
LOGIN :

Iscrizione | Disclaimer

   EN    FR    IT 

 










Sommario :    VFR   VFR Marginale   IFR   IFR Intensivo   IFR Molto Intensivo
Visibilità : 
Base nubi : 
>= 8 km
>= 3000ft
5 / 8 km
1000 / 3000 ft
1500m / 5 km
500 / 1000 ft
800 / 1500m
200 / 500 ft
< 800m
< 200 ft
Simboli :   Temporali  Nebbia  Neve Forte  Precipitazioni Forti  Vento > 20 kt
SIGMETs :   Varie  Temporali  Ghiacco  Turbolenza  Onda orograficha  Ceneri Vulcaniche







- Altitudine del aeroporto : 614 ft
- Codice IATA : CRL


EBCI - Charleroi

ULTIMO METAR :
  • 241750Z 36006KT 330V030 9999 FEW040 11/06 Q1036 NOSIG

METARs OBSOLETI :
  • 241720Z 36006KT 9999 FEW040 12/05 Q1036 NOSIG
  • 241650Z 35007KT 9999 FEW040 12/05 Q1036 NOSIG
  • 241620Z 01008KT 330V040 9999 FEW040 12/05 Q1036 NOSIG
  • 241550Z 36009KT 320V030 9999 FEW040 14/06 Q1035 NOSIG
  • 241520Z 35007KT 310V020 9999 FEW040 14/05 Q1035 NOSIG
  • 241450Z 01011KT 340V040 9999 FEW040 13/05 Q1035 NOSIG

TAF TAF EBCI
Valido dal 24 a 18 ore il 26 a 00 ore UTC


241710Z 2418/2524 33005KT 9999 FEW040
PROB40
TEMPO 2503/2507 1200 BCFG
Nessun NOTAM noto per questo aeroporto.



MetMap, La meteo Aeronautica in un colpo d'occhio ! - Copyright ORBIFLY Dicembre 2007 - Disclaimer

ORBIFLY MET'MAP TEAM :

Programmazione e sviluppo : Alexandra Zaïnal
Concezione e sviluppo : Baudouin d'Aumeries
Co-Programmazione e sviluppo : Marc-Olivier Méhu
Supporto tecnico e logistico : Manuel Goepfert
Aiuto per la traduzione : Arnaldo La Scala

Contatto : metmap@orbifly.com




FONTI E CREDITI :

   NOAA